PFO weather

Paphos International Airport
Paphos, Paphos District, Cyprus

Public forecast

Using degrees Celsius for public forecast. Weather courtesy of forecast.io.

METAR (pilot weather report)

Retrieved 2019/05/24 18:30 UTC (0 seconds ago):

LCPH 241830Z 30013KT 9999 FEW050 22/19 Q1009

TAF (pilot weather forecast)

Retrieved 2019/05/24 18:33 UTC (0 seconds ago):

TAF LCPH 241730Z 2418/2518 33010KT CAVOK BECMG 2506/2510 27015KT